createdAt,value
2018-05-03T00:00:01.756Z,0.00
2018-05-03T00:01:01.756Z,0.00
2018-05-03T00:02:01.798Z,0.00
2018-05-03T00:03:01.783Z,0.00
2018-05-03T00:04:01.791Z,0.00
2018-05-03T00:05:01.808Z,0.00
2018-05-03T00:06:01.813Z,0.00
2018-05-03T00:07:01.826Z,0.00
2018-05-03T00:08:01.841Z,0.00
2018-05-03T00:09:01.847Z,0.00
2018-05-03T00:10:01.880Z,0.00
2018-05-03T00:11:01.865Z,0.00
2018-05-03T00:12:01.876Z,0.00
2018-05-03T00:13:01.891Z,0.00
2018-05-03T00:14:01.898Z,0.00
2018-05-03T00:15:01.917Z,0.00
2018-05-03T00:16:01.932Z,0.00
2018-05-03T00:17:01.936Z,0.00
2018-05-03T00:18:01.948Z,0.00
2018-05-03T00:19:01.960Z,0.00
2018-05-03T00:20:01.970Z,0.00
2018-05-03T00:21:01.978Z,0.00
2018-05-03T00:22:01.994Z,0.00
2018-05-03T00:23:02.061Z,0.00
2018-05-03T00:24:02.010Z,0.00
2018-05-03T00:25:02.019Z,0.00
2018-05-03T00:26:02.032Z,0.00
2018-05-03T00:27:02.047Z,0.00
2018-05-03T00:28:02.060Z,0.00
2018-05-03T00:29:02.063Z,0.00
2018-05-03T00:30:02.076Z,0.00
2018-05-03T00:31:02.085Z,0.00
2018-05-03T00:32:02.104Z,0.00
2018-05-03T00:33:02.109Z,0.00
2018-05-03T00:34:02.119Z,0.00
2018-05-03T00:35:02.140Z,0.00
2018-05-03T00:36:02.141Z,0.00
2018-05-03T00:37:02.163Z,0.00
2018-05-03T00:38:02.167Z,0.00
2018-05-03T00:39:02.178Z,0.00
2018-05-03T00:40:02.191Z,0.00
2018-05-03T00:41:02.195Z,0.00
2018-05-03T00:42:02.207Z,0.00
2018-05-03T00:43:02.227Z,0.00
2018-05-03T00:44:02.230Z,0.00
2018-05-03T00:45:02.243Z,0.00
2018-05-03T00:46:02.252Z,0.00
2018-05-03T00:47:02.268Z,0.00
2018-05-03T00:48:02.276Z,0.00
2018-05-03T00:49:02.311Z,0.00
2018-05-03T00:50:02.300Z,0.00
2018-05-03T00:51:02.304Z,0.00
2018-05-03T00:52:02.325Z,0.00
2018-05-03T00:53:02.328Z,0.00
2018-05-03T00:54:02.338Z,0.00
2018-05-03T00:55:02.374Z,0.00
2018-05-03T00:56:02.369Z,0.00
2018-05-03T00:57:02.371Z,0.00
2018-05-03T00:58:02.384Z,0.00
2018-05-03T00:59:02.393Z,0.00
2018-05-03T01:00:02.405Z,0.00
2018-05-03T01:01:02.415Z,0.00
2018-05-03T01:02:02.428Z,0.00
2018-05-03T01:03:02.438Z,0.00
2018-05-03T01:04:02.478Z,0.00
2018-05-03T01:05:02.458Z,0.00
2018-05-03T01:06:02.549Z,0.00
2018-05-03T01:07:02.479Z,0.00
2018-05-03T01:08:02.491Z,0.00
2018-05-03T01:09:02.507Z,0.00
2018-05-03T01:10:02.524Z,0.00
2018-05-03T01:11:02.523Z,0.00
2018-05-03T01:12:02.531Z,0.00
2018-05-03T01:13:02.549Z,0.00
2018-05-03T01:14:02.555Z,0.00
2018-05-03T01:15:02.568Z,0.00
2018-05-03T01:16:02.588Z,0.00
2018-05-03T01:17:02.598Z,0.00
2018-05-03T01:18:02.600Z,0.00
2018-05-03T01:19:02.618Z,0.00
2018-05-03T01:20:02.629Z,0.00
2018-05-03T01:21:02.632Z,0.00
2018-05-03T01:22:02.651Z,0.00
2018-05-03T01:23:02.655Z,0.00
2018-05-03T01:24:02.670Z,0.00
2018-05-03T01:25:02.678Z,0.00
2018-05-03T01:26:02.689Z,0.00
2018-05-03T01:27:02.699Z,0.00
2018-05-03T01:28:02.708Z,0.00
2018-05-03T01:29:02.720Z,0.00
2018-05-03T01:30:02.741Z,0.00
2018-05-03T01:31:02.741Z,0.00
2018-05-03T01:32:02.753Z,0.00
2018-05-03T01:33:02.762Z,0.00
2018-05-03T01:34:02.773Z,0.00
2018-05-03T01:35:02.787Z,0.00
2018-05-03T01:36:02.803Z,0.00
2018-05-03T01:37:02.808Z,0.00
2018-05-03T01:38:02.822Z,0.00
2018-05-03T01:39:02.829Z,0.00
2018-05-03T01:40:02.843Z,0.00
2018-05-03T01:41:02.854Z,0.00
2018-05-03T01:42:02.862Z,0.00
2018-05-03T01:43:02.878Z,0.00
2018-05-03T01:44:02.883Z,0.00
2018-05-03T01:45:02.895Z,0.00
2018-05-03T01:46:02.900Z,0.00
2018-05-03T01:47:02.913Z,0.00
2018-05-03T01:48:02.927Z,0.00
2018-05-03T01:49:02.947Z,0.00
2018-05-03T01:50:02.947Z,0.00
2018-05-03T01:51:02.959Z,0.00
2018-05-03T01:52:02.968Z,0.00
2018-05-03T01:53:02.979Z,0.00
2018-05-03T01:54:02.989Z,0.00
2018-05-03T01:55:03.005Z,0.00
2018-05-03T01:56:03.011Z,0.00
2018-05-03T01:57:03.024Z,0.00
2018-05-03T01:58:03.032Z,0.00
2018-05-03T01:59:03.043Z,0.00
2018-05-03T02:00:03.052Z,0.00
2018-05-03T02:01:03.081Z,0.00
2018-05-03T02:02:03.075Z,0.00
2018-05-03T02:03:03.089Z,0.00
2018-05-03T02:04:03.107Z,0.00
2018-05-03T02:05:03.109Z,0.00
2018-05-03T02:06:03.124Z,0.00
2018-05-03T02:07:03.128Z,0.00
2018-05-03T02:08:03.154Z,0.00
2018-05-03T02:09:03.149Z,0.00
2018-05-03T02:10:03.162Z,0.00
2018-05-03T02:11:03.172Z,0.00
2018-05-03T02:12:03.190Z,0.00
2018-05-03T02:13:03.201Z,0.00
2018-05-03T02:14:03.203Z,0.00
2018-05-03T02:15:03.224Z,0.00
2018-05-03T02:16:03.223Z,0.00
2018-05-03T02:17:03.238Z,0.00
2018-05-03T02:18:03.248Z,0.00
2018-05-03T02:19:03.259Z,0.00
2018-05-03T02:20:03.269Z,0.00
2018-05-03T02:21:03.283Z,0.00
2018-05-03T02:22:03.291Z,0.00
2018-05-03T02:23:03.300Z,0.00
2018-05-03T02:24:03.310Z,0.00
2018-05-03T02:25:03.319Z,0.00
2018-05-03T02:26:03.331Z,0.00
2018-05-03T02:27:03.348Z,0.00
2018-05-03T02:28:03.357Z,0.00
2018-05-03T02:29:03.379Z,0.00
2018-05-03T02:30:03.376Z,0.00
2018-05-03T02:31:03.387Z,0.00
2018-05-03T02:32:03.398Z,0.00
2018-05-03T02:33:03.411Z,0.00
2018-05-03T02:34:03.420Z,0.00
2018-05-03T02:35:03.436Z,0.00
2018-05-03T02:36:03.440Z,0.00
2018-05-03T02:37:03.471Z,0.00
2018-05-03T02:38:03.460Z,0.00
2018-05-03T02:39:03.470Z,0.00
2018-05-03T02:40:03.489Z,0.00
2018-05-03T02:41:03.493Z,0.00
2018-05-03T02:42:03.504Z,0.00
2018-05-03T02:43:03.517Z,0.00
2018-05-03T02:44:03.526Z,0.00
2018-05-03T02:45:03.536Z,0.00
2018-05-03T02:46:03.553Z,0.00
2018-05-03T02:47:03.562Z,0.00
2018-05-03T02:48:03.568Z,0.00
2018-05-03T02:49:03.583Z,0.00
2018-05-03T02:50:03.591Z,0.00
2018-05-03T02:51:03.601Z,0.00
2018-05-03T02:52:03.612Z,0.00
2018-05-03T02:53:03.641Z,0.00
2018-05-03T02:54:03.633Z,0.00
2018-05-03T02:55:03.643Z,0.00
2018-05-03T02:56:03.655Z,0.00
2018-05-03T02:57:03.667Z,0.00
2018-05-03T02:58:03.674Z,0.00
2018-05-03T02:59:03.689Z,0.00
2018-05-03T03:00:03.695Z,0.00
2018-05-03T03:01:03.705Z,0.00
2018-05-03T03:02:03.715Z,0.00
2018-05-03T03:03:03.727Z,0.00
2018-05-03T03:04:03.764Z,0.00
2018-05-03T03:05:03.753Z,0.00
2018-05-03T03:06:03.755Z,0.00
2018-05-03T03:07:03.766Z,0.00
2018-05-03T03:08:03.777Z,0.00
2018-05-03T03:09:03.791Z,0.00
2018-05-03T03:10:03.802Z,0.00
2018-05-03T03:11:03.809Z,0.00
2018-05-03T03:12:03.831Z,0.00
2018-05-03T03:13:03.830Z,0.00
2018-05-03T03:14:03.843Z,0.00
2018-05-03T03:15:03.852Z,0.00
2018-05-03T03:16:03.868Z,0.00
2018-05-03T03:17:03.878Z,0.00
2018-05-03T03:18:03.886Z,0.00
2018-05-03T03:19:03.903Z,0.00
2018-05-03T03:20:03.906Z,0.00
2018-05-03T03:21:03.916Z,0.00
2018-05-03T03:22:03.944Z,0.00
2018-05-03T03:23:03.941Z,0.00
2018-05-03T03:24:03.961Z,0.00
2018-05-03T03:25:03.960Z,0.00
2018-05-03T03:26:03.974Z,0.00
2018-05-03T03:27:03.980Z,0.00
2018-05-03T03:28:03.990Z,0.00
2018-05-03T03:29:03.999Z,0.00
2018-05-03T03:30:04.021Z,0.00
2018-05-03T03:31:04.022Z,0.00
2018-05-03T03:32:04.033Z,0.00
2018-05-03T03:33:04.040Z,0.00
2018-05-03T03:34:04.055Z,0.00
2018-05-03T03:35:04.069Z,0.00
2018-05-03T03:36:04.083Z,0.00
2018-05-03T03:37:04.088Z,4.00
2018-05-03T03:38:04.102Z,4.00
2018-05-03T03:39:04.109Z,4.00
2018-05-03T03:40:04.117Z,0.00
2018-05-03T03:41:04.129Z,4.00
2018-05-03T03:42:04.150Z,4.00
2018-05-03T03:43:04.150Z,4.00
2018-05-03T03:44:04.157Z,4.00
2018-05-03T03:45:04.171Z,4.00
2018-05-03T03:46:04.182Z,8.00
2018-05-03T03:47:04.191Z,4.00
2018-05-03T03:48:04.209Z,8.00
2018-05-03T03:49:04.216Z,12.00
2018-05-03T03:50:04.224Z,12.00
2018-05-03T03:51:04.253Z,12.00
2018-05-03T03:52:04.243Z,16.00
2018-05-03T03:53:04.263Z,16.00
2018-05-03T03:54:04.265Z,20.00
2018-05-03T03:55:04.276Z,24.00
2018-05-03T03:56:04.287Z,24.00
2018-05-03T03:57:04.304Z,28.00
2018-05-03T03:58:04.306Z,32.00
2018-05-03T03:59:04.399Z,32.00
2018-05-03T04:00:04.329Z,40.00
2018-05-03T04:01:04.340Z,44.00
2018-05-03T04:02:04.346Z,44.00
2018-05-03T04:03:04.365Z,52.00
2018-05-03T04:04:04.374Z,56.00
2018-05-03T04:05:04.386Z,56.00
2018-05-03T04:06:04.389Z,60.00
2018-05-03T04:07:04.402Z,60.00
2018-05-03T04:08:04.419Z,56.00
2018-05-03T04:09:05.440Z,56.00
2018-05-03T04:11:47.089Z,52.00
2018-05-03T04:12:38.938Z,56.00
2018-05-03T04:14:32.222Z,68.00
2018-05-03T04:15:32.464Z,72.00
2018-05-03T04:17:48.781Z,92.00
2018-05-03T04:18:49.576Z,100.00
2018-05-03T04:20:55.808Z,128.00
2018-05-03T04:21:56.628Z,136.00
2018-05-03T04:23:50.212Z,152.00
2018-05-03T04:24:50.048Z,156.00
2018-05-03T04:26:55.548Z,180.00
2018-05-03T04:27:55.769Z,196.00
2018-05-03T04:28:55.889Z,212.00
2018-05-03T04:29:55.601Z,224.00
2018-05-03T04:30:55.598Z,232.00
2018-05-03T04:31:55.627Z,236.00
2018-05-03T04:32:55.613Z,244.00
2018-05-03T04:33:55.617Z,252.00
2018-05-03T04:34:55.625Z,264.00
2018-05-03T04:35:55.682Z,288.00
2018-05-03T04:36:55.644Z,336.00
2018-05-03T04:37:55.656Z,408.00
2018-05-03T04:38:56.060Z,504.00
2018-05-03T04:39:55.677Z,604.00
2018-05-03T04:40:55.685Z,688.00
2018-05-03T04:41:55.770Z,764.00
2018-05-03T04:42:55.710Z,824.00
2018-05-03T04:43:55.725Z,868.00
2018-05-03T04:44:55.806Z,920.00
2018-05-03T04:45:55.755Z,960.00
2018-05-03T04:46:55.875Z,1000.00
2018-05-03T04:47:55.764Z,1060.00
2018-05-03T04:48:55.775Z,1120.00
2018-05-03T04:49:55.787Z,1148.00
2018-05-03T04:50:55.789Z,1180.00
2018-05-03T04:51:55.802Z,1200.00
2018-05-03T04:52:55.812Z,1180.00
2018-05-03T04:53:55.837Z,1108.00
2018-05-03T04:54:55.844Z,1032.00
2018-05-03T04:55:55.842Z,964.00
2018-05-03T04:56:55.857Z,916.00
2018-05-03T04:57:55.922Z,892.00
2018-05-03T04:58:55.875Z,892.00
2018-05-03T04:59:55.883Z,924.00
2018-05-03T05:00:55.895Z,984.00
2018-05-03T05:01:55.904Z,1064.00
2018-05-03T05:02:55.912Z,1164.00
2018-05-03T05:03:55.924Z,1276.00
2018-05-03T05:04:55.945Z,1400.00
2018-05-03T05:05:55.963Z,1520.00
2018-05-03T05:06:55.956Z,1624.00
2018-05-03T05:07:55.967Z,1708.00
2018-05-03T05:08:55.980Z,1784.00
2018-05-03T05:09:56.006Z,1872.00
2018-05-03T05:10:55.998Z,1988.00
2018-05-03T05:11:56.029Z,2116.00
2018-05-03T05:12:56.032Z,2264.00
2018-05-03T05:13:56.036Z,2396.00
2018-05-03T05:14:56.042Z,2492.00
2018-05-03T05:15:56.123Z,2536.00
2018-05-03T05:16:56.061Z,2540.00
2018-05-03T05:17:56.106Z,2532.00
2018-05-03T05:18:56.083Z,2504.00
2018-05-03T05:19:56.098Z,2464.00
2018-05-03T05:20:56.107Z,2368.00
2018-05-03T05:21:56.143Z,2264.00
2018-05-03T05:22:56.129Z,2168.00
2018-05-03T05:23:56.146Z,2100.00
2018-05-03T05:24:56.149Z,2040.00
2018-05-03T05:25:56.160Z,1984.00
2018-05-03T05:26:56.168Z,1872.00
2018-05-03T05:27:56.179Z,1720.00
2018-05-03T05:28:56.210Z,1584.00
2018-05-03T05:29:56.201Z,1468.00
2018-05-03T05:30:56.219Z,1368.00
2018-05-03T05:31:56.228Z,1292.00
2018-05-03T05:32:56.234Z,1240.00
2018-05-03T05:33:56.248Z,1244.00
2018-05-03T05:34:56.275Z,1256.00
2018-05-03T05:35:56.268Z,1264.00
2018-05-03T05:36:56.276Z,1284.00
2018-05-03T05:37:56.313Z,1352.00
2018-05-03T05:38:56.330Z,1468.00
2018-05-03T05:39:56.308Z,1572.00
2018-05-03T05:40:56.320Z,1644.00
2018-05-03T05:41:56.329Z,1676.00
2018-05-03T05:42:56.342Z,1688.00
2018-05-03T05:43:56.401Z,1680.00
2018-05-03T05:44:56.362Z,1660.00
2018-05-03T05:45:56.371Z,1592.00
2018-05-03T05:46:56.380Z,1508.00
2018-05-03T05:47:56.395Z,1464.00
2018-05-03T05:48:56.405Z,1468.00
2018-05-03T05:49:56.428Z,1500.00
2018-05-03T05:50:56.511Z,1532.00
2018-05-03T05:51:56.469Z,1564.00
2018-05-03T05:52:56.447Z,1600.00
2018-05-03T05:53:56.460Z,1644.00
2018-05-03T05:54:56.465Z,1688.00
2018-05-03T05:55:56.477Z,1712.00
2018-05-03T05:56:56.490Z,1708.00
2018-05-03T05:57:56.505Z,1704.00
2018-05-03T05:58:56.521Z,1740.00
2018-05-03T05:59:56.525Z,1804.00
2018-05-03T06:00:56.531Z,1860.00
2018-05-03T06:01:56.546Z,1920.00
2018-05-03T06:02:56.557Z,1960.00
2018-05-03T06:03:56.572Z,1960.00
2018-05-03T06:04:56.574Z,1972.00
2018-05-03T06:05:56.585Z,2008.00
2018-05-03T06:06:56.633Z,2032.00
2018-05-03T06:07:56.607Z,2060.00
2018-05-03T06:08:56.625Z,2104.00
2018-05-03T06:09:56.706Z,2180.00
2018-05-03T06:10:56.637Z,2244.00
2018-05-03T06:11:56.662Z,2296.00
2018-05-03T06:12:56.685Z,2340.00
2018-05-03T06:13:56.675Z,2372.00
2018-05-03T06:14:56.708Z,2384.00
2018-05-03T06:15:56.707Z,2340.00
2018-05-03T06:16:56.769Z,2284.00
2018-05-03T06:17:56.920Z,2268.00
2018-05-03T06:18:56.725Z,2288.00
2018-05-03T06:19:56.738Z,2324.00
2018-05-03T06:20:56.748Z,2396.00
2018-05-03T06:21:56.826Z,2500.00
2018-05-03T06:22:56.768Z,2452.00
2018-05-03T06:23:56.780Z,2172.00
2018-05-03T06:24:56.824Z,1948.00
2018-05-03T06:25:56.880Z,1888.00
2018-05-03T06:26:56.814Z,1928.00
2018-05-03T06:27:56.824Z,2060.00
2018-05-03T06:28:56.837Z,2208.00
2018-05-03T06:29:56.846Z,2324.00
2018-05-03T06:30:56.855Z,2428.00
2018-05-03T06:31:56.868Z,2576.00
2018-05-03T06:32:56.874Z,2652.00
2018-05-03T06:33:56.897Z,2656.00
2018-05-03T06:34:56.901Z,2728.00
2018-05-03T06:35:56.907Z,2792.00
2018-05-03T06:36:56.916Z,2824.00
2018-05-03T06:37:56.931Z,2848.00
2018-05-03T06:38:57.029Z,2908.00
2018-05-03T06:39:56.948Z,2952.00
2018-05-03T06:40:56.962Z,2984.00
2018-05-03T06:41:56.975Z,2992.00
2018-05-03T06:42:56.980Z,3020.00
2018-05-03T06:43:56.992Z,3016.00
2018-05-03T06:44:57.002Z,2964.00
2018-05-03T06:45:57.014Z,2804.00
2018-05-03T06:46:57.039Z,2640.00
2018-05-03T06:47:57.069Z,2508.00
2018-05-03T06:48:57.049Z,2468.00
2018-05-03T06:49:57.058Z,2540.00
2018-05-03T06:50:57.991Z,2720.00
2018-05-03T06:51:57.088Z,3036.00
2018-05-03T06:52:57.092Z,3300.00
2018-05-03T06:53:57.099Z,3416.00
2018-05-03T06:54:57.117Z,3592.00
2018-05-03T06:55:57.123Z,3816.00
2018-05-03T06:56:57.135Z,4104.00
2018-05-03T06:57:58.007Z,4416.00
2018-05-03T06:58:57.155Z,4756.00
2018-05-03T06:59:57.284Z,5092.00
2018-05-03T07:00:57.183Z,5424.00
2018-05-03T07:01:57.186Z,5760.00
2018-05-03T07:02:57.199Z,6028.00
2018-05-03T07:03:57.359Z,6112.00
2018-05-03T07:04:57.221Z,5960.00
2018-05-03T07:05:57.233Z,5704.00
2018-05-03T07:06:57.240Z,5544.00
2018-05-03T07:07:57.254Z,5540.00
2018-05-03T07:08:57.261Z,5652.00
2018-05-03T07:09:57.304Z,5860.00
2018-05-03T07:10:57.288Z,6164.00
2018-05-03T07:11:57.327Z,6444.00
2018-05-03T07:12:57.311Z,6672.00
2018-05-03T07:13:57.322Z,6940.00
2018-05-03T07:14:57.331Z,7316.00
2018-05-03T07:15:57.341Z,7684.00
2018-05-03T07:16:57.388Z,7868.00
2018-05-03T07:17:57.378Z,7840.00
2018-05-03T07:18:57.374Z,7640.00
2018-05-03T07:19:57.391Z,7352.00
2018-05-03T07:20:57.398Z,7092.00
2018-05-03T07:21:57.409Z,6876.00
2018-05-03T07:22:57.432Z,6796.00
2018-05-03T07:23:57.431Z,6864.00
2018-05-03T07:24:57.444Z,7068.00
2018-05-03T07:25:57.483Z,7348.00
2018-05-03T07:26:57.466Z,7628.00
2018-05-03T07:27:57.479Z,7884.00
2018-05-03T07:28:57.496Z,8060.00
2018-05-03T07:29:57.502Z,8100.00
2018-05-03T07:30:57.517Z,7996.00
2018-05-03T07:31:57.523Z,7860.00
2018-05-03T07:32:57.536Z,7712.00
2018-05-03T07:33:57.546Z,7568.00
2018-05-03T07:34:57.556Z,7588.00
2018-05-03T07:35:57.579Z,7756.00
2018-05-03T07:36:57.587Z,7864.00
2018-05-03T07:37:57.593Z,7776.00
2018-05-03T07:38:57.612Z,7556.00
2018-05-03T07:39:57.617Z,7352.00
2018-05-03T07:40:57.700Z,7344.00
2018-05-03T07:41:57.641Z,7500.00
2018-05-03T07:42:57.655Z,7752.00
2018-05-03T07:43:57.664Z,8100.00
2018-05-03T07:44:57.687Z,8404.00
2018-05-03T07:45:57.690Z,8628.00
2018-05-03T07:46:57.698Z,8712.00
2018-05-03T07:47:57.714Z,8732.00
2018-05-03T07:48:57.858Z,8700.00
2018-05-03T07:49:57.734Z,8616.00
2018-05-03T07:50:57.746Z,8540.00
2018-05-03T07:51:57.841Z,8588.00
2018-05-03T07:52:57.774Z,8800.00
2018-05-03T07:53:57.791Z,9076.00
2018-05-03T07:54:57.893Z,9268.00
2018-05-03T07:55:57.859Z,9324.00
2018-05-03T07:56:57.815Z,9380.00
2018-05-03T07:57:57.833Z,9472.00
2018-05-03T07:58:57.840Z,9592.00
2018-05-03T07:59:57.852Z,9652.00
2018-05-03T08:00:57.863Z,9564.00
2018-05-03T08:01:57.898Z,9324.00
2018-05-03T08:02:57.892Z,9024.00
2018-05-03T08:03:57.912Z,8860.00
2018-05-03T08:04:57.915Z,8924.00
2018-05-03T08:05:57.923Z,9108.00
2018-05-03T08:06:57.935Z,9396.00
2018-05-03T08:07:57.951Z,9764.00
2018-05-03T08:08:57.963Z,10132.00
2018-05-03T08:09:57.972Z,10396.00
2018-05-03T08:10:57.994Z,10520.00
2018-05-03T08:11:57.995Z,10532.00
2018-05-03T08:12:58.011Z,10512.00
2018-05-03T08:13:58.021Z,10536.00
2018-05-03T08:14:58.032Z,10576.00
2018-05-03T08:15:58.048Z,10628.00
2018-05-03T08:16:58.071Z,10712.00
2018-05-03T08:17:58.080Z,10936.00
2018-05-03T08:18:58.127Z,11340.00
2018-05-03T08:19:58.293Z,11836.00
2018-05-03T08:20:58.105Z,12336.00
2018-05-03T08:21:58.137Z,12692.00
2018-05-03T08:22:58.161Z,12976.00
2018-05-03T08:23:58.148Z,13152.00
2018-05-03T08:25:06.006Z,13264.00
2018-05-03T08:27:02.830Z,13420.00
2018-05-03T08:28:02.886Z,13428.00
2018-05-03T08:29:02.863Z,13440.00
2018-05-03T08:30:02.874Z,13452.00
2018-05-03T08:31:02.806Z,13384.00
2018-05-03T08:32:02.951Z,13124.00
2018-05-03T08:33:02.826Z,12648.00
2018-05-03T08:34:02.858Z,12188.00
2018-05-03T08:35:02.844Z,11960.00
2018-05-03T08:36:02.862Z,11996.00
2018-05-03T08:37:02.872Z,12284.00
2018-05-03T08:38:02.895Z,12740.00
2018-05-03T08:39:02.925Z,13160.00
2018-05-03T08:40:02.918Z,13304.00
2018-05-03T08:41:02.924Z,13388.00
2018-05-03T08:42:02.943Z,13356.00
2018-05-03T08:43:02.952Z,13472.00
2018-05-03T08:44:02.959Z,13724.00
2018-05-03T08:45:02.976Z,14484.00
2018-05-03T08:46:03.011Z,15276.00
2018-05-03T08:47:03.004Z,15936.00
2018-05-03T08:48:03.031Z,16032.00
2018-05-03T08:49:03.029Z,15968.00
2018-05-03T08:50:03.043Z,15692.00
2018-05-03T08:51:03.052Z,15660.00
2018-05-03T08:52:03.067Z,15936.00
2018-05-03T08:53:03.076Z,15968.00
2018-05-03T08:54:03.096Z,15608.00
2018-05-03T08:55:03.157Z,15112.00
2018-05-03T08:56:03.224Z,14484.00
2018-05-03T08:57:03.129Z,13912.00
2018-05-03T08:58:03.173Z,13548.00
2018-05-03T08:59:03.189Z,13424.00
2018-05-03T09:00:03.170Z,13572.00
2018-05-03T09:01:03.184Z,14076.00
2018-05-03T09:02:03.197Z,14220.00
2018-05-03T09:03:03.255Z,14412.00
2018-05-03T09:04:03.228Z,14480.00
2018-05-03T09:05:03.234Z,14576.00
2018-05-03T09:06:03.250Z,14828.00
2018-05-03T09:07:03.289Z,15328.00
2018-05-03T09:08:03.285Z,16064.00
2018-05-03T09:09:03.293Z,16544.00
2018-05-03T09:10:03.303Z,16512.00
2018-05-03T09:11:03.321Z,16096.00
2018-05-03T09:12:03.329Z,15560.00
2018-05-03T09:13:03.342Z,15148.00
2018-05-03T09:14:03.356Z,15036.00
2018-05-03T09:15:03.396Z,15368.00
2018-05-03T09:16:03.383Z,16000.00
2018-05-03T09:17:03.407Z,16416.00
2018-05-03T09:18:03.409Z,16640.00
2018-05-03T09:19:03.429Z,16736.00
2018-05-03T09:20:03.441Z,16704.00
2018-05-03T09:21:03.473Z,16640.00
2018-05-03T09:22:03.464Z,16608.00
2018-05-03T09:23:03.479Z,16864.00
2018-05-03T09:24:03.493Z,17312.00
2018-05-03T09:25:03.504Z,17664.00
2018-05-03T09:26:03.529Z,17920.00
2018-05-03T09:27:03.548Z,18304.00
2018-05-03T09:28:03.546Z,18784.00
2018-05-03T09:29:03.594Z,19200.00
2018-05-03T09:30:03.574Z,19584.00
2018-05-03T09:31:03.589Z,19840.00
2018-05-03T09:32:03.605Z,20064.00
2018-05-03T09:33:03.614Z,19936.00
2018-05-03T09:34:03.625Z,19776.00
2018-05-03T09:35:03.660Z,19456.00
2018-05-03T09:36:03.655Z,19232.00
2018-05-03T09:37:03.676Z,19040.00
2018-05-03T09:38:03.681Z,19072.00
2018-05-03T09:39:03.775Z,19392.00
2018-05-03T09:40:03.715Z,19680.00
2018-05-03T09:41:03.731Z,19744.00
2018-05-03T09:42:03.745Z,19584.00
2018-05-03T09:43:03.756Z,19456.00
2018-05-03T09:44:03.770Z,19520.00
2018-05-03T09:45:03.785Z,19872.00
2018-05-03T09:46:03.801Z,19936.00
2018-05-03T09:47:03.809Z,19776.00
2018-05-03T09:48:03.829Z,19488.00
2018-05-03T09:49:03.841Z,19424.00
2018-05-03T09:50:03.854Z,19488.00
2018-05-03T09:51:03.878Z,19424.00
2018-05-03T09:52:03.884Z,19552.00
2018-05-03T09:53:03.901Z,20000.00
2018-05-03T09:54:03.934Z,20096.00
2018-05-03T09:55:03.940Z,19712.00
2018-05-03T09:56:03.945Z,19296.00
2018-05-03T09:57:03.956Z,19168.00
2018-05-03T09:58:03.972Z,18752.00
2018-05-03T09:59:03.995Z,18720.00
2018-05-03T10:00:04.025Z,18816.00
2018-05-03T10:01:04.017Z,18464.00
2018-05-03T10:02:04.032Z,18048.00
2018-05-03T10:03:04.043Z,17888.00
2018-05-03T10:04:04.079Z,17632.00
2018-05-03T10:05:04.082Z,17632.00
2018-05-03T10:06:04.095Z,17920.00
2018-05-03T10:07:04.101Z,18368.00
2018-05-03T10:08:04.135Z,18848.00
2018-05-03T10:09:04.141Z,19520.00
2018-05-03T10:10:04.146Z,20192.00
2018-05-03T10:11:04.165Z,20544.00
2018-05-03T10:12:04.187Z,20736.00
2018-05-03T10:13:04.205Z,20704.00
2018-05-03T10:14:04.210Z,20896.00
2018-05-03T10:15:04.236Z,20576.00
2018-05-03T10:16:04.238Z,20384.00
2018-05-03T10:17:04.252Z,20064.00
2018-05-03T10:18:04.264Z,19936.00
2018-05-03T10:19:04.289Z,19584.00
2018-05-03T10:20:04.295Z,19040.00
2018-05-03T10:21:04.320Z,19648.00
2018-05-03T10:22:04.406Z,20672.00
2018-05-03T10:23:04.340Z,20864.00
2018-05-03T10:24:04.363Z,20864.00
2018-05-03T10:25:04.377Z,20768.00
2018-05-03T10:26:04.387Z,20320.00
2018-05-03T10:27:04.403Z,18912.00
2018-05-03T10:28:04.417Z,17984.00
2018-05-03T10:29:04.431Z,17408.00
2018-05-03T10:30:04.449Z,18048.00
2018-05-03T10:31:04.459Z,20128.00
2018-05-03T10:32:04.474Z,22656.00
2018-05-03T10:33:04.496Z,24352.00
2018-05-03T10:34:04.529Z,25120.00
2018-05-03T10:35:04.519Z,24608.00
2018-05-03T10:36:04.550Z,23456.00
2018-05-03T10:37:04.556Z,21472.00
2018-05-03T10:38:04.603Z,21632.00
2018-05-03T10:39:04.580Z,21312.00
2018-05-03T10:40:04.597Z,20544.00
2018-05-03T10:41:04.638Z,18432.00
2018-05-03T10:42:04.721Z,19328.00
2018-05-03T10:43:04.690Z,21056.00
2018-05-03T10:44:04.656Z,20736.00
2018-05-03T10:45:04.672Z,18176.00
2018-05-03T10:46:04.691Z,18016.00
2018-05-03T10:47:04.709Z,19392.00
2018-05-03T10:48:04.717Z,20928.00
2018-05-03T10:49:04.813Z,20960.00
2018-05-03T10:50:04.748Z,19392.00
2018-05-03T10:51:04.764Z,20896.00
2018-05-03T10:52:04.813Z,21216.00
2018-05-03T10:53:04.808Z,20512.00
2018-05-03T10:54:04.840Z,19712.00
2018-05-03T10:55:04.828Z,19872.00
2018-05-03T10:56:04.850Z,22016.00
2018-05-03T10:57:04.854Z,23264.00
2018-05-03T10:58:04.868Z,24000.00
2018-05-03T10:59:04.890Z,24992.00
2018-05-03T11:00:04.909Z,23008.00
2018-05-03T11:01:04.916Z,20224.00
2018-05-03T11:02:04.934Z,19360.00
2018-05-03T11:03:04.953Z,18336.00
2018-05-03T11:04:04.990Z,15760.00
2018-05-03T11:05:04.978Z,14332.00
2018-05-03T11:06:04.990Z,14256.00
2018-05-03T11:07:05.008Z,14604.00
2018-05-03T11:08:05.021Z,15344.00
2018-05-03T11:09:05.037Z,15904.00
2018-05-03T11:10:05.059Z,16384.00
2018-05-03T11:11:05.178Z,16192.00
2018-05-03T11:12:05.084Z,14812.00
2018-05-03T11:13:05.104Z,13564.00
2018-05-03T11:14:05.123Z,13352.00
2018-05-03T11:15:05.139Z,13928.00
2018-05-03T11:16:05.155Z,14648.00
2018-05-03T11:17:05.160Z,15456.00
2018-05-03T11:18:05.175Z,16640.00
2018-05-03T11:19:05.191Z,18016.00
2018-05-03T11:20:05.237Z,20512.00
2018-05-03T11:21:05.219Z,24576.00
2018-05-03T11:22:05.240Z,45312.00
2018-05-03T11:23:05.248Z,37440.00
2018-05-03T11:24:05.265Z,37376.00
2018-05-03T11:25:05.284Z,36192.00
2018-05-03T11:26:05.297Z,45344.00
2018-05-03T11:27:05.313Z,71328.00
2018-05-03T11:28:05.327Z,86208.00
2018-05-03T11:29:05.342Z,93728.00
2018-05-03T11:30:05.364Z,90368.00
2018-05-03T11:31:06.186Z,75936.00
2018-05-03T11:32:05.391Z,102432.00
2018-05-03T11:33:05.445Z,62944.00
2018-05-03T11:34:05.428Z,27168.00
2018-05-03T11:35:05.440Z,25376.00
2018-05-03T11:36:05.460Z,28640.00
2018-05-03T11:37:05.480Z,25376.00
2018-05-03T11:38:05.495Z,22816.00
2018-05-03T11:39:05.523Z,21280.00
2018-05-03T11:40:05.531Z,21376.00
2018-05-03T11:41:05.550Z,21280.00
2018-05-03T11:42:05.567Z,20448.00
2018-05-03T11:43:05.583Z,21376.00
2018-05-03T11:44:05.601Z,20864.00
2018-05-03T11:45:05.621Z,23104.00
2018-05-03T11:46:05.640Z,57888.00
2018-05-03T11:47:05.667Z,34208.00
2018-05-03T11:48:05.674Z,31072.00
2018-05-03T11:49:05.694Z,28640.00
2018-05-03T11:50:05.708Z,28000.00
2018-05-03T11:51:05.727Z,28992.00
2018-05-03T11:52:05.740Z,31904.00
2018-05-03T11:53:05.761Z,30976.00
2018-05-03T11:54:05.786Z,26848.00
2018-05-03T11:55:05.802Z,25024.00
2018-05-03T11:56:05.815Z,23648.00
2018-05-03T11:57:05.832Z,25664.00
2018-05-03T11:58:05.845Z,28864.00
2018-05-03T11:59:05.977Z,26560.00
2018-05-03T12:00:05.882Z,30848.00
2018-05-03T12:01:05.899Z,32512.00
2018-05-03T12:02:05.918Z,31968.00
2018-05-03T12:03:05.930Z,41856.00
2018-05-03T12:04:05.947Z,52416.00
2018-05-03T12:05:05.963Z,36544.00
2018-05-03T12:06:06.040Z,30944.00
2018-05-03T12:07:05.999Z,28288.00
2018-05-03T12:08:06.017Z,26112.00
2018-05-03T12:09:06.049Z,29216.00
2018-05-03T12:10:06.051Z,25824.00
2018-05-03T12:11:06.071Z,34080.00
2018-05-03T12:12:06.085Z,26496.00
2018-05-03T12:13:06.103Z,25568.00
2018-05-03T12:14:06.121Z,24352.00
2018-05-03T12:15:06.133Z,23360.00
2018-05-03T12:16:06.159Z,23168.00
2018-05-03T12:17:06.461Z,22784.00
2018-05-03T12:18:06.188Z,21504.00
2018-05-03T12:19:06.205Z,19040.00
2018-05-03T12:20:06.220Z,15968.00
2018-05-03T12:21:06.237Z,13584.00
2018-05-03T12:22:06.263Z,12024.00
2018-05-03T12:23:06.270Z,10964.00
2018-05-03T12:24:06.289Z,10336.00
2018-05-03T12:25:06.306Z,9936.00
2018-05-03T12:26:06.320Z,9664.00
2018-05-03T12:27:06.366Z,9788.00
2018-05-03T12:28:06.392Z,10672.00
2018-05-03T12:29:06.418Z,11128.00